sensor_id;sensor_type;location;lat;lon;timestamp;pressure;altitude;pressure_sealevel;temperature;humidity
38225;BME280;24025;48.138;11.428;2023-03-21T00:00:59;95735.50;;;8.50;69.57
38225;BME280;24025;48.138;11.428;2023-03-21T00:03:34;95740.88;;;8.54;69.92
38225;BME280;24025;48.138;11.428;2023-03-21T00:06:08;95734.56;;;8.58;69.97
38225;BME280;24025;48.138;11.428;2023-03-21T00:08:41;95732.66;;;8.59;69.77
38225;BME280;24025;48.138;11.428;2023-03-21T00:11:13;95723.47;;;8.56;69.53
38225;BME280;24025;48.138;11.428;2023-03-21T00:13:44;95723.16;;;8.58;69.76
38225;BME280;24025;48.138;11.428;2023-03-21T00:16:19;95726.25;;;8.60;70.10
38225;BME280;24025;48.138;11.428;2023-03-21T00:19:00;95711.75;;;8.57;70.30
38225;BME280;24025;48.138;11.428;2023-03-21T00:21:36;95722.28;;;8.54;70.72
38225;BME280;24025;48.138;11.428;2023-03-21T00:24:25;95716.19;;;8.53;71.03
38225;BME280;24025;48.138;11.428;2023-03-21T00:26:57;95709.34;;;8.52;71.40
38225;BME280;24025;48.138;11.428;2023-03-21T00:29:49;95718.09;;;8.52;71.41
38225;BME280;24025;48.138;11.428;2023-03-21T00:32:22;95710.13;;;8.52;72.30
38225;BME280;24025;48.138;11.428;2023-03-21T00:34:53;95709.09;;;8.57;71.58
38225;BME280;24025;48.138;11.428;2023-03-21T00:37:46;95712.84;;;8.56;72.09
38225;BME280;24025;48.138;11.428;2023-03-21T00:40:18;95709.88;;;8.58;71.75
38225;BME280;24025;48.138;11.428;2023-03-21T00:43:03;95707.22;;;8.58;72.41
38225;BME280;24025;48.138;11.428;2023-03-21T00:45:34;95705.22;;;8.55;71.68
38225;BME280;24025;48.138;11.428;2023-03-21T00:48:08;95710.81;;;8.49;71.72
38225;BME280;24025;48.138;11.428;2023-03-21T00:50:40;95707.03;;;8.35;72.21
38225;BME280;24025;48.138;11.428;2023-03-21T00:53:18;95706.94;;;8.31;72.40
38225;BME280;24025;48.138;11.428;2023-03-21T00:55:50;95705.72;;;8.29;72.27
38225;BME280;24025;48.138;11.428;2023-03-21T00:58:21;95692.88;;;8.31;72.49
38225;BME280;24025;48.138;11.428;2023-03-21T01:00:53;95691.63;;;8.40;71.56
38225;BME280;24025;48.138;11.428;2023-03-21T01:03:25;95686.63;;;8.39;72.30
38225;BME280;24025;48.138;11.428;2023-03-21T01:05:57;95692.38;;;8.41;72.38
38225;BME280;24025;48.138;11.428;2023-03-21T01:08:40;95695.19;;;8.48;71.78
38225;BME280;24025;48.138;11.428;2023-03-21T01:11:26;95683.53;;;8.52;71.43
38225;BME280;24025;48.138;11.428;2023-03-21T01:13:58;95684.72;;;8.55;71.84
38225;BME280;24025;48.138;11.428;2023-03-21T01:16:51;95683.97;;;8.55;71.89
38225;BME280;24025;48.138;11.428;2023-03-21T01:19:24;95685.06;;;8.54;72.20
38225;BME280;24025;48.138;11.428;2023-03-21T01:22:19;95683.72;;;8.60;71.71
38225;BME280;24025;48.138;11.428;2023-03-21T01:24:51;95686.97;;;8.53;71.96
38225;BME280;24025;48.138;11.428;2023-03-21T01:27:33;95676.91;;;8.62;71.45
38225;BME280;24025;48.138;11.428;2023-03-21T01:30:05;95686.09;;;8.65;71.65
38225;BME280;24025;48.138;11.428;2023-03-21T01:32:49;95674.78;;;8.68;71.25
38225;BME280;24025;48.138;11.428;2023-03-21T01:35:21;95668.69;;;8.67;71.31
38225;BME280;24025;48.138;11.428;2023-03-21T01:37:53;95669.47;;;8.68;71.59
38225;BME280;24025;48.138;11.428;2023-03-21T01:40:25;95664.50;;;8.66;71.84
38225;BME280;24025;48.138;11.428;2023-03-21T01:42:57;95663.28;;;8.64;71.91
38225;BME280;24025;48.138;11.428;2023-03-21T01:46:05;95669.22;;;8.57;72.29
38225;BME280;24025;48.138;11.428;2023-03-21T01:48:40;95655.16;;;8.57;71.81
38225;BME280;24025;48.138;11.428;2023-03-21T01:51:13;95660.03;;;8.55;72.08
38225;BME280;24025;48.138;11.428;2023-03-21T01:53:44;95655.25;;;8.60;72.01
38225;BME280;24025;48.138;11.428;2023-03-21T01:56:25;95648.63;;;8.54;72.34
38225;BME280;24025;48.138;11.428;2023-03-21T01:59:04;95655.94;;;8.57;72.65
38225;BME280;24025;48.138;11.428;2023-03-21T02:01:39;95658.50;;;8.54;73.14
38225;BME280;24025;48.138;11.428;2023-03-21T02:04:12;95650.94;;;8.56;72.77
38225;BME280;24025;48.138;11.428;2023-03-21T02:09:27;95652.31;;;8.65;72.50
38225;BME280;24025;48.138;11.428;2023-03-21T02:12:02;95647.34;;;8.64;72.65
38225;BME280;24025;48.138;11.428;2023-03-21T02:14:35;95651.13;;;8.63;72.71
38225;BME280;24025;48.138;11.428;2023-03-21T02:37:03;95648.56;;;8.50;72.75
38225;BME280;24025;48.138;11.428;2023-03-21T02:40:05;95649.16;;;8.44;73.59
38225;BME280;24025;48.138;11.428;2023-03-21T02:45:47;95647.00;;;8.34;73.49
38225;BME280;24025;48.138;11.428;2023-03-21T02:48:36;95653.28;;;8.41;73.64
38225;BME280;24025;48.138;11.428;2023-03-21T02:51:22;95652.94;;;8.43;73.48
38225;BME280;24025;48.138;11.428;2023-03-21T02:54:12;95642.66;;;8.41;73.67
38225;BME280;24025;48.138;11.428;2023-03-21T02:57:05;95645.75;;;8.43;73.29
38225;BME280;24025;48.138;11.428;2023-03-21T02:59:38;95650.63;;;8.41;74.12
38225;BME280;24025;48.138;11.428;2023-03-21T03:02:26;95636.66;;;8.44;73.83
38225;BME280;24025;48.138;11.428;2023-03-21T03:04:58;95651.41;;;8.42;73.31
38225;BME280;24025;48.138;11.428;2023-03-21T03:10:34;95641.13;;;8.40;73.44
38225;BME280;24025;48.138;11.428;2023-03-21T03:13:26;95643.78;;;8.40;73.34
38225;BME280;24025;48.138;11.428;2023-03-21T03:16:27;95642.91;;;8.36;73.78
38225;BME280;24025;48.138;11.428;2023-03-21T03:19:03;95646.25;;;8.33;73.80
38225;BME280;24025;48.138;11.428;2023-03-21T03:21:44;95638.38;;;8.37;74.07
38225;BME280;24025;48.138;11.428;2023-03-21T03:24:23;95633.84;;;8.37;74.24
38225;BME280;24025;48.138;11.428;2023-03-21T03:27:01;95631.31;;;8.29;74.81
38225;BME280;24025;48.138;11.428;2023-03-21T03:29:38;95635.88;;;8.28;75.58
38225;BME280;24025;48.138;11.428;2023-03-21T03:32:16;95630.81;;;8.39;74.48
38225;BME280;24025;48.138;11.428;2023-03-21T03:34:52;95630.16;;;8.42;74.11
38225;BME280;24025;48.138;11.428;2023-03-21T03:37:30;95633.16;;;8.40;74.82
38225;BME280;24025;48.138;11.428;2023-03-21T03:40:23;95635.13;;;8.43;74.14
38225;BME280;24025;48.138;11.428;2023-03-21T03:43:04;95636.84;;;8.36;74.90
38225;BME280;24025;48.138;11.428;2023-03-21T03:45:43;95640.44;;;8.43;74.56
38225;BME280;24025;48.138;11.428;2023-03-21T03:51:15;95637.72;;;8.40;74.31
38225;BME280;24025;48.138;11.428;2023-03-21T03:54:03;95634.44;;;8.31;74.86
38225;BME280;24025;48.138;11.428;2023-03-21T03:56:37;95638.44;;;8.24;75.04
38225;BME280;24025;48.138;11.428;2023-03-21T03:59:09;95641.19;;;8.28;75.05
38225;BME280;24025;48.138;11.428;2023-03-21T04:01:41;95642.41;;;8.31;75.11
38225;BME280;24025;48.138;11.428;2023-03-21T04:04:13;95634.75;;;8.29;74.60
38225;BME280;24025;48.138;11.428;2023-03-21T04:06:47;95638.88;;;8.27;75.16
38225;BME280;24025;48.138;11.428;2023-03-21T04:09:22;95632.19;;;8.33;75.06
38225;BME280;24025;48.138;11.428;2023-03-21T04:12:13;95630.22;;;8.30;74.85
38225;BME280;24025;48.138;11.428;2023-03-21T04:14:44;95623.69;;;8.27;74.87
38225;BME280;24025;48.138;11.428;2023-03-21T04:17:18;95624.56;;;8.31;74.69
38225;BME280;24025;48.138;11.428;2023-03-21T04:19:49;95635.97;;;8.32;74.69
38225;BME280;24025;48.138;11.428;2023-03-21T04:22:28;95624.75;;;8.22;74.95
38225;BME280;24025;48.138;11.428;2023-03-21T04:24:59;95624.81;;;8.26;74.78
38225;BME280;24025;48.138;11.428;2023-03-21T04:27:35;95618.03;;;8.29;74.44
38225;BME280;24025;48.138;11.428;2023-03-21T04:30:08;95620.69;;;8.29;74.25
38225;BME280;24025;48.138;11.428;2023-03-21T04:32:42;95613.50;;;8.29;74.81
38225;BME280;24025;48.138;11.428;2023-03-21T04:35:13;95621.75;;;8.24;75.19
38225;BME280;24025;48.138;11.428;2023-03-21T04:37:45;95625.25;;;8.28;74.42
38225;BME280;24025;48.138;11.428;2023-03-21T04:40:17;95616.16;;;8.29;74.09
38225;BME280;24025;48.138;11.428;2023-03-21T04:42:49;95614.97;;;8.27;74.42
38225;BME280;24025;48.138;11.428;2023-03-21T04:45:21;95619.50;;;8.26;73.95
38225;BME280;24025;48.138;11.428;2023-03-21T04:47:52;95626.00;;;8.29;74.18
38225;BME280;24025;48.138;11.428;2023-03-21T04:50:24;95621.41;;;8.26;74.78
38225;BME280;24025;48.138;11.428;2023-03-21T04:52:55;95619.84;;;8.24;74.91
38225;BME280;24025;48.138;11.428;2023-03-21T04:55:27;95615.38;;;8.29;74.58
38225;BME280;24025;48.138;11.428;2023-03-21T04:58:03;95616.16;;;8.29;74.72
38225;BME280;24025;48.138;11.428;2023-03-21T05:00:34;95612.56;;;8.21;75.26
38225;BME280;24025;48.138;11.428;2023-03-21T05:03:09;95617.28;;;8.28;75.02
38225;BME280;24025;48.138;11.428;2023-03-21T05:05:41;95622.09;;;8.22;75.72
38225;BME280;24025;48.138;11.428;2023-03-21T05:08:12;95622.88;;;8.23;75.43
38225;BME280;24025;48.138;11.428;2023-03-21T05:10:44;95627.47;;;8.26;75.45
38225;BME280;24025;48.138;11.428;2023-03-21T05:13:16;95624.91;;;8.30;75.34
38225;BME280;24025;48.138;11.428;2023-03-21T05:15:47;95616.59;;;8.31;74.14
38225;BME280;24025;48.138;11.428;2023-03-21T05:18:20;95613.50;;;8.29;74.38
38225;BME280;24025;48.138;11.428;2023-03-21T05:20:55;95608.28;;;8.33;74.78
38225;BME280;24025;48.138;11.428;2023-03-21T05:23:27;95611.38;;;8.35;74.90
38225;BME280;24025;48.138;11.428;2023-03-21T05:26:01;95606.06;;;8.35;74.79
38225;BME280;24025;48.138;11.428;2023-03-21T05:28:33;95603.31;;;8.31;74.03
38225;BME280;24025;48.138;11.428;2023-03-21T05:31:07;95606.56;;;8.24;73.96
38225;BME280;24025;48.138;11.428;2023-03-21T05:33:39;95609.59;;;8.23;74.48
38225;BME280;24025;48.138;11.428;2023-03-21T05:36:11;95606.66;;;8.28;74.83
38225;BME280;24025;48.138;11.428;2023-03-21T05:38:43;95603.16;;;8.24;74.38
38225;BME280;24025;48.138;11.428;2023-03-21T05:41:17;95613.06;;;8.27;74.02
38225;BME280;24025;48.138;11.428;2023-03-21T05:43:49;95608.19;;;8.29;74.31
38225;BME280;24025;48.138;11.428;2023-03-21T05:46:21;95617.03;;;8.33;74.53
38225;BME280;24025;48.138;11.428;2023-03-21T05:48:52;95614.81;;;8.35;73.96
38225;BME280;24025;48.138;11.428;2023-03-21T05:51:24;95622.78;;;8.35;73.63
38225;BME280;24025;48.138;11.428;2023-03-21T05:53:56;95622.78;;;8.35;73.88
38225;BME280;24025;48.138;11.428;2023-03-21T05:56:27;95629.78;;;8.28;73.84
38225;BME280;24025;48.138;11.428;2023-03-21T05:58:59;95630.97;;;8.30;73.58
38225;BME280;24025;48.138;11.428;2023-03-21T06:01:30;95634.09;;;8.32;74.14
38225;BME280;24025;48.138;11.428;2023-03-21T06:04:02;95633.06;;;8.37;74.08
38225;BME280;24025;48.138;11.428;2023-03-21T06:06:34;95634.41;;;8.46;73.82
38225;BME280;24025;48.138;11.428;2023-03-21T06:09:05;95634.16;;;8.51;73.65
38225;BME280;24025;48.138;11.428;2023-03-21T06:11:37;95632.69;;;8.54;74.03
38225;BME280;24025;48.138;11.428;2023-03-21T06:14:12;95630.56;;;8.60;74.11
38225;BME280;24025;48.138;11.428;2023-03-21T06:16:44;95632.59;;;8.66;73.25
38225;BME280;24025;48.138;11.428;2023-03-21T06:19:16;95631.13;;;8.69;72.48
38225;BME280;24025;48.138;11.428;2023-03-21T06:21:48;95637.97;;;8.70;72.34
38225;BME280;24025;48.138;11.428;2023-03-21T06:24:20;95632.25;;;8.68;72.16
38225;BME280;24025;48.138;11.428;2023-03-21T06:26:52;95632.94;;;8.65;72.21
38225;BME280;24025;48.138;11.428;2023-03-21T06:29:23;95634.97;;;8.71;72.41
38225;BME280;24025;48.138;11.428;2023-03-21T06:31:55;95635.06;;;8.75;72.11
38225;BME280;24025;48.138;11.428;2023-03-21T06:34:26;95642.75;;;8.80;72.15
38225;BME280;24025;48.138;11.428;2023-03-21T06:36:58;95645.16;;;8.85;71.74
38225;BME280;24025;48.138;11.428;2023-03-21T06:39:30;95644.44;;;8.88;71.86
38225;BME280;24025;48.138;11.428;2023-03-21T06:42:03;95646.75;;;8.90;71.63
38225;BME280;24025;48.138;11.428;2023-03-21T06:44:34;95642.38;;;8.97;71.72
38225;BME280;24025;48.138;11.428;2023-03-21T06:47:06;95649.50;;;8.93;70.71
38225;BME280;24025;48.138;11.428;2023-03-21T06:49:38;95651.41;;;8.93;71.11
38225;BME280;24025;48.138;11.428;2023-03-21T06:52:11;95640.41;;;8.94;70.72
38225;BME280;24025;48.138;11.428;2023-03-21T06:54:43;95640.88;;;9.00;71.23
38225;BME280;24025;48.138;11.428;2023-03-21T06:57:14;95644.06;;;9.05;71.19
38225;BME280;24025;48.138;11.428;2023-03-21T06:59:46;95644.13;;;9.09;70.61
38225;BME280;24025;48.138;11.428;2023-03-21T07:02:18;95644.63;;;9.15;70.42
38225;BME280;24025;48.138;11.428;2023-03-21T07:04:49;95650.09;;;9.22;69.86
38225;BME280;24025;48.138;11.428;2023-03-21T07:07:24;95643.38;;;9.28;70.08
38225;BME280;24025;48.138;11.428;2023-03-21T07:09:56;95643.94;;;9.37;69.79
38225;BME280;24025;48.138;11.428;2023-03-21T07:12:28;95651.25;;;9.44;69.85
38225;BME280;24025;48.138;11.428;2023-03-21T07:15:00;95646.38;;;9.46;69.39
38225;BME280;24025;48.138;11.428;2023-03-21T07:17:32;95649.88;;;9.50;68.99
38225;BME280;24025;48.138;11.428;2023-03-21T07:20:04;95644.06;;;9.44;68.72
38225;BME280;24025;48.138;11.428;2023-03-21T07:22:39;95651.34;;;9.47;68.94
38225;BME280;24025;48.138;11.428;2023-03-21T07:25:11;95650.84;;;9.61;69.27
38225;BME280;24025;48.138;11.428;2023-03-21T07:27:42;95648.88;;;9.58;69.07
38225;BME280;24025;48.138;11.428;2023-03-21T07:30:14;95652.09;;;9.67;68.14
38225;BME280;24025;48.138;11.428;2023-03-21T07:32:46;95647.31;;;9.76;67.44
38225;BME280;24025;48.138;11.428;2023-03-21T07:35:18;95647.25;;;9.73;67.53
38225;BME280;24025;48.138;11.428;2023-03-21T07:37:50;95648.13;;;9.80;66.94
38225;BME280;24025;48.138;11.428;2023-03-21T07:40:21;95655.06;;;9.85;67.15
38225;BME280;24025;48.138;11.428;2023-03-21T07:42:53;95661.16;;;9.85;66.16
38225;BME280;24025;48.138;11.428;2023-03-21T07:45:25;95652.03;;;9.63;67.27
38225;BME280;24025;48.138;11.428;2023-03-21T07:47:57;95656.03;;;9.73;66.58
38225;BME280;24025;48.138;11.428;2023-03-21T07:50:29;95653.91;;;9.82;67.23
38225;BME280;24025;48.138;11.428;2023-03-21T07:53:01;95658.50;;;9.85;66.51
38225;BME280;24025;48.138;11.428;2023-03-21T07:55:32;95651.09;;;9.98;66.11
38225;BME280;24025;48.138;11.428;2023-03-21T07:58:05;95658.47;;;10.05;66.73
38225;BME280;24025;48.138;11.428;2023-03-21T08:00:36;95649.81;;;10.11;64.79
38225;BME280;24025;48.138;11.428;2023-03-21T08:03:08;95646.16;;;10.19;64.97
38225;BME280;24025;48.138;11.428;2023-03-21T08:05:40;95643.56;;;10.23;64.52
38225;BME280;24025;48.138;11.428;2023-03-21T08:08:12;95645.88;;;10.25;64.27
38225;BME280;24025;48.138;11.428;2023-03-21T08:10:44;95650.63;;;10.35;64.24
38225;BME280;24025;48.138;11.428;2023-03-21T08:13:16;95650.44;;;10.24;64.08
38225;BME280;24025;48.138;11.428;2023-03-21T08:15:47;95651.06;;;10.40;63.08
38225;BME280;24025;48.138;11.428;2023-03-21T08:18:19;95651.59;;;10.49;62.89
38225;BME280;24025;48.138;11.428;2023-03-21T08:20:55;95647.47;;;10.52;62.49
38225;BME280;24025;48.138;11.428;2023-03-21T08:23:27;95652.53;;;10.61;62.21
38225;BME280;24025;48.138;11.428;2023-03-21T08:26:00;95645.84;;;10.74;62.98
38225;BME280;24025;48.138;11.428;2023-03-21T08:28:32;95650.13;;;10.78;61.96
38225;BME280;24025;48.138;11.428;2023-03-21T08:31:08;95644.34;;;10.76;61.87
38225;BME280;24025;48.138;11.428;2023-03-21T08:33:40;95651.41;;;10.88;62.06
38225;BME280;24025;48.138;11.428;2023-03-21T08:36:12;95651.91;;;10.97;61.73
38225;BME280;24025;48.138;11.428;2023-03-21T08:38:44;95652.00;;;11.04;61.56
38225;BME280;24025;48.138;11.428;2023-03-21T08:41:19;95648.69;;;11.15;60.82
38225;BME280;24025;48.138;11.428;2023-03-21T08:43:52;95643.50;;;11.29;61.21
38225;BME280;24025;48.138;11.428;2023-03-21T08:46:24;95647.78;;;11.33;60.16
38225;BME280;24025;48.138;11.428;2023-03-21T08:48:56;95636.75;;;11.39;60.39
38225;BME280;24025;48.138;11.428;2023-03-21T08:51:27;95640.19;;;11.39;59.51
38225;BME280;24025;48.138;11.428;2023-03-21T08:53:59;95634.56;;;11.48;59.06
38225;BME280;24025;48.138;11.428;2023-03-21T08:56:30;95632.81;;;11.59;58.85
38225;BME280;24025;48.138;11.428;2023-03-21T08:59:02;95631.91;;;11.48;58.14
38225;BME280;24025;48.138;11.428;2023-03-21T09:01:34;95631.31;;;11.61;59.57
38225;BME280;24025;48.138;11.428;2023-03-21T09:04:07;95621.88;;;11.75;58.34
38225;BME280;24025;48.138;11.428;2023-03-21T09:06:41;95629.31;;;11.88;57.32
38225;BME280;24025;48.138;11.428;2023-03-21T09:09:16;95622.19;;;12.03;57.71
38225;BME280;24025;48.138;11.428;2023-03-21T09:11:48;95619.63;;;12.17;57.86
38225;BME280;24025;48.138;11.428;2023-03-21T09:14:22;95626.94;;;12.24;56.50
38225;BME280;24025;48.138;11.428;2023-03-21T09:16:59;95621.63;;;12.28;57.33
38225;BME280;24025;48.138;11.428;2023-03-21T09:19:31;95621.31;;;12.36;56.54
38225;BME280;24025;48.138;11.428;2023-03-21T09:22:03;95625.19;;;12.42;55.55
38225;BME280;24025;48.138;11.428;2023-03-21T09:24:35;95610.72;;;12.47;55.53
38225;BME280;24025;48.138;11.428;2023-03-21T09:27:06;95614.41;;;12.35;55.19
38225;BME280;24025;48.138;11.428;2023-03-21T09:29:38;95625.28;;;12.57;55.90
38225;BME280;24025;48.138;11.428;2023-03-21T09:32:13;95614.25;;;12.65;56.04
38225;BME280;24025;48.138;11.428;2023-03-21T09:34:45;95615.75;;;12.63;54.47
38225;BME280;24025;48.138;11.428;2023-03-21T09:37:18;95615.50;;;12.82;55.25
38225;BME280;24025;48.138;11.428;2023-03-21T09:39:51;95614.75;;;12.89;51.97
38225;BME280;24025;48.138;11.428;2023-03-21T09:47:44;95619.81;;;13.04;53.20
38225;BME280;24025;48.138;11.428;2023-03-21T09:50:26;95611.16;;;13.29;53.40
38225;BME280;24025;48.138;11.428;2023-03-21T09:53:23;95614.63;;;13.37;52.62
38225;BME280;24025;48.138;11.428;2023-03-21T09:55:58;95614.25;;;13.38;52.10
38225;BME280;24025;48.138;11.428;2023-03-21T09:58:36;95610.47;;;13.53;51.79
38225;BME280;24025;48.138;11.428;2023-03-21T10:03:53;95608.63;;;13.86;52.62
38225;BME280;24025;48.138;11.428;2023-03-21T10:06:27;95606.34;;;13.95;51.82
38225;BME280;24025;48.138;11.428;2023-03-21T10:09:03;95604.44;;;14.06;52.21
38225;BME280;24025;48.138;11.428;2023-03-21T10:11:42;95603.31;;;14.14;51.50
38225;BME280;24025;48.138;11.428;2023-03-21T10:14:19;95603.69;;;14.16;51.49
38225;BME280;24025;48.138;11.428;2023-03-21T10:17:00;95602.13;;;14.12;49.86
38225;BME280;24025;48.138;11.428;2023-03-21T10:19:34;95589.50;;;13.87;50.73
38225;BME280;24025;48.138;11.428;2023-03-21T10:22:07;95598.59;;;13.47;51.33
38225;BME280;24025;48.138;11.428;2023-03-21T10:24:39;95590.56;;;13.51;51.96
38225;BME280;24025;48.138;11.428;2023-03-21T10:27:11;95591.69;;;13.36;51.42
38225;BME280;24025;48.138;11.428;2023-03-21T10:29:44;95585.97;;;13.58;52.58
38225;BME280;24025;48.138;11.428;2023-03-21T10:32:17;95580.25;;;13.60;51.10
38225;BME280;24025;48.138;11.428;2023-03-21T10:34:54;95571.84;;;13.86;51.08
38225;BME280;24025;48.138;11.428;2023-03-21T10:37:32;95579.91;;;13.83;50.47
38225;BME280;24025;48.138;11.428;2023-03-21T10:40:06;95585.28;;;14.11;50.83
38225;BME280;24025;48.138;11.428;2023-03-21T10:42:39;95575.31;;;14.30;49.63
38225;BME280;24025;48.138;11.428;2023-03-21T10:45:16;95573.78;;;14.43;48.65
38225;BME280;24025;48.138;11.428;2023-03-21T10:47:49;95574.94;;;14.60;48.59
38225;BME280;24025;48.138;11.428;2023-03-21T10:50:27;95568.38;;;14.79;47.65
38225;BME280;24025;48.138;11.428;2023-03-21T10:53:00;95567.91;;;14.98;47.58
38225;BME280;24025;48.138;11.428;2023-03-21T10:55:33;95559.41;;;15.14;47.66
38225;BME280;24025;48.138;11.428;2023-03-21T10:58:07;95553.88;;;15.46;48.10
38225;BME280;24025;48.138;11.428;2023-03-21T11:00:41;95551.44;;;15.76;46.76
38225;BME280;24025;48.138;11.428;2023-03-21T11:03:29;95558.47;;;15.45;45.72
38225;BME280;24025;48.138;11.428;2023-03-21T11:06:07;95550.44;;;15.42;44.93
38225;BME280;24025;48.138;11.428;2023-03-21T11:08:50;95554.19;;;15.62;44.91
38225;BME280;24025;48.138;11.428;2023-03-21T11:14:00;95549.91;;;15.72;45.06
38225;BME280;24025;48.138;11.428;2023-03-21T11:16:42;95547.53;;;15.84;45.91
38225;BME280;24025;48.138;11.428;2023-03-21T11:19:19;95540.28;;;16.23;45.76
38225;BME280;24025;48.138;11.428;2023-03-21T11:21:58;95538.66;;;16.36;44.93
38225;BME280;24025;48.138;11.428;2023-03-21T11:24:31;95534.00;;;16.40;43.53
38225;BME280;24025;48.138;11.428;2023-03-21T11:27:06;95535.41;;;15.51;43.94
38225;BME280;24025;48.138;11.428;2023-03-21T11:29:39;95531.41;;;15.84;44.08
38225;BME280;24025;48.138;11.428;2023-03-21T11:32:33;95521.94;;;15.62;44.17
38225;BME280;24025;48.138;11.428;2023-03-21T11:35:16;95522.09;;;15.34;44.30
38225;BME280;24025;48.138;11.428;2023-03-21T11:37:51;95514.19;;;15.75;45.27
38225;BME280;24025;48.138;11.428;2023-03-21T11:40:24;95512.88;;;15.94;46.06
38225;BME280;24025;48.138;11.428;2023-03-21T11:45:31;95499.97;;;16.19;43.80
38225;BME280;24025;48.138;11.428;2023-03-21T11:48:12;95501.47;;;16.24;43.43
38225;BME280;24025;48.138;11.428;2023-03-21T11:50:46;95498.50;;;15.66;44.26
38225;BME280;24025;48.138;11.428;2023-03-21T12:05:02;95479.84;;;15.90;43.65
38225;BME280;24025;48.138;11.428;2023-03-21T12:10:25;95463.50;;;16.14;44.49
38225;BME280;24025;48.138;11.428;2023-03-21T12:16:00;95452.16;;;16.34;43.25
38225;BME280;24025;48.138;11.428;2023-03-21T12:24:04;95453.59;;;16.42;42.27
38225;BME280;24025;48.138;11.428;2023-03-21T12:41:28;95441.22;;;17.90;38.90
38225;BME280;24025;48.138;11.428;2023-03-21T12:44:04;95438.16;;;18.11;37.73
38225;BME280;24025;48.138;11.428;2023-03-21T12:46:46;95438.72;;;18.23;37.19
38225;BME280;24025;48.138;11.428;2023-03-21T12:49:40;95434.19;;;17.19;38.59
38225;BME280;24025;48.138;11.428;2023-03-21T12:52:27;95431.22;;;18.10;37.82
38225;BME280;24025;48.138;11.428;2023-03-21T12:55:15;95420.84;;;18.09;36.89
38225;BME280;24025;48.138;11.428;2023-03-21T12:58:19;95421.91;;;17.68;37.06
38225;BME280;24025;48.138;11.428;2023-03-21T13:00:55;95419.13;;;17.48;37.32
38225;BME280;24025;48.138;11.428;2023-03-21T13:03:49;95410.31;;;17.71;36.92
38225;BME280;24025;48.138;11.428;2023-03-21T13:06:23;95410.09;;;17.86;38.34
38225;BME280;24025;48.138;11.428;2023-03-21T13:09:05;95408.69;;;18.40;37.61
38225;BME280;24025;48.138;11.428;2023-03-21T13:11:42;95400.13;;;19.02;36.06
38225;BME280;24025;48.138;11.428;2023-03-21T13:14:19;95388.41;;;19.73;36.08
38225;BME280;24025;48.138;11.428;2023-03-21T13:17:01;95396.25;;;20.00;34.79
38225;BME280;24025;48.138;11.428;2023-03-21T13:19:42;95382.91;;;19.61;34.58
38225;BME280;24025;48.138;11.428;2023-03-21T13:27:37;95387.97;;;19.91;32.90
38225;BME280;24025;48.138;11.428;2023-03-21T13:30:28;95383.78;;;20.03;33.61
38225;BME280;24025;48.138;11.428;2023-03-21T13:33:12;95382.56;;;19.75;33.25
38225;BME280;24025;48.138;11.428;2023-03-21T13:35:44;95381.69;;;21.80;30.94
38225;BME280;24025;48.138;11.428;2023-03-21T13:38:19;95382.81;;;23.72;27.86
38225;BME280;24025;48.138;11.428;2023-03-21T13:41:07;95370.38;;;24.72;26.38
38225;BME280;24025;48.138;11.428;2023-03-21T13:46:41;95361.72;;;27.38;23.53
38225;BME280;24025;48.138;11.428;2023-03-21T13:49:36;95366.88;;;27.01;23.95
38225;BME280;24025;48.138;11.428;2023-03-21T13:54:47;95355.13;;;28.47;21.81
38225;BME280;24025;48.138;11.428;2023-03-21T13:57:35;95355.22;;;28.32;21.97
38225;BME280;24025;48.138;11.428;2023-03-21T14:00:19;95355.78;;;28.36;22.04
38225;BME280;24025;48.138;11.428;2023-03-21T14:03:11;95362.56;;;27.80;21.36
38225;BME280;24025;48.138;11.428;2023-03-21T14:05:48;95348.56;;;28.65;21.04
38225;BME280;24025;48.138;11.428;2023-03-21T14:08:20;95344.25;;;29.21;21.02
38225;BME280;24025;48.138;11.428;2023-03-21T14:11:11;95347.34;;;29.34;20.30
38225;BME280;24025;48.138;11.428;2023-03-21T14:13:45;95345.00;;;29.59;20.09
38225;BME280;24025;48.138;11.428;2023-03-21T14:16:24;95334.69;;;29.97;19.73
38225;BME280;24025;48.138;11.428;2023-03-21T14:19:03;95338.69;;;29.96;19.98
38225;BME280;24025;48.138;11.428;2023-03-21T14:21:36;95339.50;;;29.59;20.74
38225;BME280;24025;48.138;11.428;2023-03-21T14:24:12;95332.09;;;29.76;20.01
38225;BME280;24025;48.138;11.428;2023-03-21T14:26:50;95337.63;;;29.33;20.87
38225;BME280;24025;48.138;11.428;2023-03-21T14:29:29;95339.91;;;28.26;22.07
38225;BME280;24025;48.138;11.428;2023-03-21T14:32:02;95331.69;;;28.52;21.20
38225;BME280;24025;48.138;11.428;2023-03-21T14:34:36;95330.22;;;26.78;23.41
38225;BME280;24025;48.138;11.428;2023-03-21T14:37:10;95333.66;;;24.91;25.25
38225;BME280;24025;48.138;11.428;2023-03-21T14:39:41;95331.03;;;23.54;26.87
38225;BME280;24025;48.138;11.428;2023-03-21T14:42:13;95322.78;;;24.82;26.05
38225;BME280;24025;48.138;11.428;2023-03-21T14:44:49;95317.91;;;25.76;24.60
38225;BME280;24025;48.138;11.428;2023-03-21T14:47:28;95324.69;;;25.33;24.67
38225;BME280;24025;48.138;11.428;2023-03-21T14:50:00;95321.75;;;22.83;27.46
38225;BME280;24025;48.138;11.428;2023-03-21T14:52:33;95328.81;;;22.06;29.04
38225;BME280;24025;48.138;11.428;2023-03-21T14:55:14;95316.16;;;20.83;31.30
38225;BME280;24025;48.138;11.428;2023-03-21T14:57:46;95327.09;;;20.54;32.62
38225;BME280;24025;48.138;11.428;2023-03-21T15:00:25;95325.31;;;19.76;33.54
38225;BME280;24025;48.138;11.428;2023-03-21T15:03:00;95319.72;;;19.22;34.62
38225;BME280;24025;48.138;11.428;2023-03-21T15:05:34;95318.41;;;18.78;35.36
38225;BME280;24025;48.138;11.428;2023-03-21T15:08:11;95318.72;;;19.00;35.47
38225;BME280;24025;48.138;11.428;2023-03-21T15:11:11;95316.75;;;18.84;35.98
38225;BME280;24025;48.138;11.428;2023-03-21T15:13:48;95314.63;;;19.40;34.63